Time,TemperatureF,DewpointF,PressureIn,WindDirection,WindDirectionDegrees,WindSpeedMPH,WindSpeedGustMPH,Humidity,HourlyPrecipIn,Conditions,Clouds,dailyrainin,SoftwareType,DateUTC
2013-08-03 00:00:00,66.1,63.1,29.90,SW,215,3.0,3.0,90,0.00,,CLR,0.00,VWS V14.00,2013-08-03 04:00:00,
2013-08-03 00:01:00,66.1,62.8,29.90,West,259,1.0,3.0,89,0.00,,CLR,0.00,VWS V14.00,2013-08-03 04:01:00,
2013-08-03 00:02:00,66.2,62.5,29.90,West,259,0.0,3.0,88,0.00,,CLR,0.00,VWS V14.00,2013-08-03 04:02:00,
2013-08-03 00:07:00,66.3,62.0,29.90,East,85,0.0,3.0,86,0.00,,CLR,0.00,VWS V14.00,2013-08-03 04:07:00,
2013-08-03 00:12:00,66.7,61.4,29.90,SE,144,0.0,3.0,83,0.00,,CLR,0.00,VWS V14.00,2013-08-03 04:12:00,
2013-08-03 00:17:00,67.1,61.1,29.90,SSE,155,0.0,3.0,81,0.00,,CLR,0.00,VWS V14.00,2013-08-03 04:17:00,
2013-08-03 00:22:00,67.6,61.2,29.90,WSW,248,0.0,3.0,80,0.00,,CLR,0.00,VWS V14.00,2013-08-03 04:22:00,
2013-08-03 00:27:00,67.4,62.1,29.90,WSW,248,0.0,3.0,83,0.00,,CLR,0.00,VWS V14.00,2013-08-03 04:27:00,
2013-08-03 00:30:00,67.2,61.9,29.90,WSW,248,0.0,3.0,83,0.00,,CLR,0.00,VWS V14.00,2013-08-03 04:30:00,
2013-08-03 00:32:00,66.9,61.9,29.90,WSW,247,0.0,0.0,84,0.00,,CLR,0.00,VWS V14.00,2013-08-03 04:32:00,
2013-08-03 00:37:00,66.5,61.9,29.89,WSW,248,0.0,0.0,85,0.00,,CLR,0.00,VWS V14.00,2013-08-03 04:37:00,
2013-08-03 00:42:00,66.0,61.7,29.90,WSW,248,0.0,0.0,86,0.00,,CLR,0.00,VWS V14.00,2013-08-03 04:42:00,
2013-08-03 00:47:00,65.8,61.8,29.89,SSW,194,0.0,0.0,87,0.00,,CLR,0.00,VWS V14.00,2013-08-03 04:47:00,
2013-08-03 00:53:00,65.6,62.0,29.89,SSW,194,0.0,0.0,88,0.00,,CLR,0.00,VWS V14.00,2013-08-03 04:53:00,
2013-08-03 00:58:00,65.3,62.0,29.89,SSW,194,0.0,0.0,89,0.00,,CLR,0.00,VWS V14.00,2013-08-03 04:58:00,
2013-08-03 01:00:00,65.2,61.9,29.89,SSW,194,0.0,0.0,89,0.00,,CLR,0.00,VWS V14.00,2013-08-03 05:00:00,
2013-08-03 01:03:00,65.0,61.7,29.89,SSW,194,0.0,0.0,89,0.00,,CLR,0.00,VWS V14.00,2013-08-03 05:03:00,
2013-08-03 01:08:00,64.8,61.5,29.89,SSW,194,0.0,0.0,89,0.00,,CLR,0.00,VWS V14.00,2013-08-03 05:08:00,
2013-08-03 01:13:00,64.7,61.4,29.89,SSW,194,0.0,0.0,89,0.00,,CLR,0.00,VWS V14.00,2013-08-03 05:13:00,
2013-08-03 01:18:00,64.6,61.6,29.89,SW,215,0.0,0.0,90,0.00,,CLR,0.00,VWS V14.00,2013-08-03 05:18:00,
2013-08-03 01:23:00,64.4,61.1,29.89,South,169,0.0,0.0,89,0.00,,CLR,0.00,VWS V14.00,2013-08-03 05:23:00,
2013-08-03 01:29:00,64.5,61.2,29.89,WSW,243,0.0,0.0,89,0.00,,CLR,0.00,VWS V14.00,2013-08-03 05:29:00,
2013-08-03 01:30:00,64.5,60.9,29.89,WSW,243,0.0,0.0,88,0.00,,CLR,0.00,VWS V14.00,2013-08-03 05:30:00,
2013-08-03 01:34:00,64.5,60.9,29.89,SW,232,0.0,1.0,88,0.00,,CLR,0.00,VWS V14.00,2013-08-03 05:34:00,
2013-08-03 01:39:00,64.5,60.9,29.89,SW,232,0.0,1.0,88,0.00,,CLR,0.00,VWS V14.00,2013-08-03 05:39:00,
2013-08-03 01:44:00,64.4,60.8,29.88,SW,232,0.0,1.0,88,0.00,,CLR,0.00,VWS V14.00,2013-08-03 05:44:00,
2013-08-03 01:49:00,64.3,61.0,29.88,SW,235,0.0,1.0,89,0.00,,CLR,0.00,VWS V14.00,2013-08-03 05:49:00,
2013-08-03 01:54:00,63.8,60.8,29.89,SW,235,0.0,1.0,90,0.00,,CLR,0.00,VWS V14.00,2013-08-03 05:54:00,
2013-08-03 01:59:00,63.5,60.5,29.89,SW,235,0.0,0.0,90,0.00,,CLR,0.00,VWS V14.00,2013-08-03 05:59:00,
2013-08-03 02:00:00,63.5,60.5,29.89,SW,235,0.0,1.0,90,0.00,,CLR,0.00,VWS V14.00,2013-08-03 06:00:00,
2013-08-03 02:04:00,63.3,60.3,29.89,SW,235,0.0,0.0,90,0.00,,CLR,0.00,VWS V14.00,2013-08-03 06:04:00,
2013-08-03 02:10:00,63.2,60.5,29.89,SW,235,0.0,0.0,91,0.00,,CLR,0.00,VWS V14.00,2013-08-03 06:10:00,
2013-08-03 02:15:00,63.0,60.3,29.89,SW,233,0.0,0.0,91,0.00,,CLR,0.00,VWS V14.00,2013-08-03 06:15:00,
2013-08-03 02:20:00,62.9,60.2,29.89,SW,235,0.0,0.0,91,0.00,,CLR,0.00,VWS V14.00,2013-08-03 06:20:00,
2013-08-03 02:25:00,62.9,60.2,29.88,SW,233,0.0,0.0,91,0.00,,CLR,0.00,VWS V14.00,2013-08-03 06:25:00,
2013-08-03 02:30:00,62.8,60.1,29.88,SW,234,0.0,0.0,91,0.00,,CLR,0.00,VWS V14.00,2013-08-03 06:30:00,
2013-08-03 02:35:00,62.7,60.3,29.87,SW,233,0.0,0.0,92,0.00,,CLR,0.00,VWS V14.00,2013-08-03 06:35:00,
2013-08-03 02:40:00,62.6,60.2,29.87,SW,235,0.0,0.0,92,0.00,,CLR,0.00,VWS V14.00,2013-08-03 06:40:00,
2013-08-03 02:46:00,62.5,60.2,29.87,SW,233,0.0,0.0,92,0.00,,CLR,0.00,VWS V14.00,2013-08-03 06:46:00,
2013-08-03 02:51:00,62.7,60.7,29.87,SSE,150,0.0,1.0,93,0.00,,CLR,0.00,VWS V14.00,2013-08-03 06:51:00,
2013-08-03 02:56:00,63.0,61.0,29.87,SSE,150,0.0,1.0,93,0.00,,CLR,0.00,VWS V14.00,2013-08-03 06:56:00,
2013-08-03 03:00:00,63.0,61.0,29.87,SSE,150,0.0,1.0,93,0.00,,CLR,0.00,VWS V14.00,2013-08-03 07:00:00,
2013-08-03 03:01:00,63.0,61.0,29.87,SSE,151,0.0,0.0,93,0.00,,FEW080,0.00,VWS V14.00,2013-08-03 07:01:00,
2013-08-03 03:06:00,63.0,61.0,29.86,SSE,150,0.0,0.0,93,0.00,,FEW080,0.00,VWS V14.00,2013-08-03 07:06:00,
2013-08-03 03:11:00,63.1,60.7,29.86,SSE,151,0.0,0.0,92,0.00,,FEW080,0.00,VWS V14.00,2013-08-03 07:11:00,
2013-08-03 03:16:00,63.3,61.2,29.86,SSE,151,0.0,0.0,93,0.00,,FEW080,0.00,VWS V14.00,2013-08-03 07:16:00,
2013-08-03 03:21:00,63.3,60.9,29.86,SSE,150,0.0,0.0,92,0.00,,FEW080,0.00,VWS V14.00,2013-08-03 07:21:00,
2013-08-03 03:26:00,63.4,61.0,29.86,SSE,150,0.0,0.0,92,0.00,,FEW080,0.00,VWS V14.00,2013-08-03 07:26:00,
2013-08-03 03:30:00,63.4,61.0,29.86,SSE,150,0.0,0.0,92,0.00,,CLR,0.00,VWS V14.00,2013-08-03 07:30:00,
2013-08-03 03:32:00,63.4,61.0,29.86,SSE,150,0.0,0.0,92,0.00,,FEW080,0.00,VWS V14.00,2013-08-03 07:32:00,
2013-08-03 03:37:00,63.5,61.1,29.86,SSE,151,0.0,0.0,92,0.00,,FEW080,0.00,VWS V14.00,2013-08-03 07:37:00,
2013-08-03 03:42:00,63.7,61.6,29.87,SSE,153,0.0,1.0,93,0.00,,FEW080,0.00,VWS V14.00,2013-08-03 07:42:00,
2013-08-03 03:47:00,63.8,61.7,29.87,SSE,150,0.0,1.0,93,0.00,,FEW080,0.00,VWS V14.00,2013-08-03 07:47:00,
2013-08-03 03:52:00,63.9,61.8,29.87,SSE,150,0.0,1.0,93,0.00,,FEW080,0.00,VWS V14.00,2013-08-03 07:52:00,
2013-08-03 03:57:00,64.0,61.9,29.87,West,269,0.0,1.0,93,0.00,,FEW080,0.00,VWS V14.00,2013-08-03 07:57:00,
2013-08-03 04:00:00,64.0,61.6,29.87,West,269,0.0,1.0,92,0.00,,CLR,0.00,VWS V14.00,2013-08-03 08:00:00,
2013-08-03 04:02:00,64.1,61.7,29.87,West,269,0.0,1.0,92,0.00,,SCT075,0.00,VWS V14.00,2013-08-03 08:02:00,
2013-08-03 04:07:00,64.2,61.8,29.87,West,270,0.0,1.0,92,0.00,,SCT075,0.00,VWS V14.00,2013-08-03 08:07:00,
2013-08-03 04:12:00,64.4,61.7,29.87,West,270,0.0,1.0,91,0.00,,SCT075,0.00,VWS V14.00,2013-08-03 08:12:00,
2013-08-03 04:18:00,64.6,61.9,29.87,WNW,297,1.0,2.0,91,0.00,,SCT075,0.00,VWS V14.00,2013-08-03 08:18:00,
2013-08-03 04:23:00,65.1,62.1,29.87,WSW,245,0.0,2.0,90,0.00,,SCT075,0.00,VWS V14.00,2013-08-03 08:23:00,
2013-08-03 04:28:00,65.3,62.0,29.87,WSW,243,0.0,2.0,89,0.00,,SCT075,0.00,VWS V14.00,2013-08-03 08:28:00,
2013-08-03 04:30:00,65.3,62.0,29.88,WSW,243,0.0,2.0,89,0.00,,CLR,0.00,VWS V14.00,2013-08-03 08:30:00,
2013-08-03 04:33:00,65.5,62.2,29.87,WSW,238,0.0,2.0,89,0.00,,SCT075,0.00,VWS V14.00,2013-08-03 08:33:00,
2013-08-03 04:38:00,65.9,62.2,29.88,WSW,248,2.0,3.0,88,0.00,,SCT075,0.00,VWS V14.00,2013-08-03 08:38:00,
2013-08-03 04:43:00,66.4,62.4,29.88,SSW,211,1.0,4.0,87,0.00,,SCT075,0.00,VWS V14.00,2013-08-03 08:43:00,
2013-08-03 04:48:00,66.7,62.7,29.88,WSW,243,0.0,4.0,87,0.00,,SCT075,0.00,VWS V14.00,2013-08-03 08:48:00,
2013-08-03 04:53:00,66.8,62.8,29.87,SSW,198,0.0,4.0,87,0.00,,SCT075,0.00,VWS V14.00,2013-08-03 08:53:00,
2013-08-03 04:58:00,66.9,62.9,29.87,SW,219,0.0,4.0,87,0.00,,SCT075,0.00,VWS V14.00,2013-08-03 08:58:00,
2013-08-03 05:00:00,66.9,62.9,29.87,SW,229,0.0,4.0,87,0.00,,CLR,0.00,VWS V14.00,2013-08-03 09:00:00,
2013-08-03 05:03:00,67.1,63.1,29.87,SSW,204,0.0,0.0,87,0.00,,OVC085,0.00,VWS V14.00,2013-08-03 09:03:00,
2013-08-03 05:09:00,67.2,63.2,29.87,SW,224,0.0,4.0,87,0.00,,OVC085,0.00,VWS V14.00,2013-08-03 09:09:00,
2013-08-03 05:14:00,67.2,63.2,29.87,SW,222,0.0,4.0,87,0.00,,OVC085,0.00,VWS V14.00,2013-08-03 09:14:00,
2013-08-03 05:19:00,67.2,62.9,29.88,SW,224,0.0,4.0,86,0.00,,OVC085,0.00,VWS V14.00,2013-08-03 09:19:00,
2013-08-03 05:24:00,67.3,63.0,29.88,WSW,239,0.0,4.0,86,0.00,,OVC085,0.00,VWS V14.00,2013-08-03 09:24:00,
2013-08-03 05:29:00,67.3,63.0,29.87,SW,235,0.0,4.0,86,0.00,,OVC085,0.00,VWS V14.00,2013-08-03 09:29:00,
2013-08-03 05:30:00,67.3,63.0,29.87,SW,234,0.0,4.0,86,0.00,,CLR,0.00,VWS V14.00,2013-08-03 09:30:00,
2013-08-03 05:34:00,67.2,62.5,29.87,SW,235,0.0,0.0,85,0.00,,OVC085,0.00,VWS V14.00,2013-08-03 09:34:00,
2013-08-03 05:39:00,67.2,62.9,29.87,SW,235,0.0,1.0,86,0.00,,OVC085,0.00,VWS V14.00,2013-08-03 09:39:00,
2013-08-03 05:44:00,67.2,62.9,29.87,SW,235,1.0,1.0,86,0.00,,OVC085,0.00,VWS V14.00,2013-08-03 09:44:00,
2013-08-03 05:49:00,67.2,62.9,29.87,South,191,0.0,2.0,86,0.00,,OVC085,0.00,VWS V14.00,2013-08-03 09:49:00,
2013-08-03 05:54:00,67.2,62.5,29.87,SW,233,1.0,2.0,85,0.00,,OVC085,0.00,VWS V14.00,2013-08-03 09:54:00,
2013-08-03 05:59:00,67.2,62.2,29.87,SW,234,0.0,0.0,84,0.00,,OVC085,0.00,VWS V14.00,2013-08-03 09:59:00,
2013-08-03 06:00:00,67.2,62.5,29.87,SW,233,0.0,2.0,85,0.00,,CLR,0.00,VWS V14.00,2013-08-03 10:00:00,
2013-08-03 06:05:00,67.3,62.3,29.87,SW,214,0.0,0.0,84,0.00,,BKN065,0.00,VWS V14.00,2013-08-03 10:05:00,
2013-08-03 06:10:00,67.2,62.5,29.87,SW,214,0.0,0.0,85,0.00,,BKN065,0.00,VWS V14.00,2013-08-03 10:10:00,
2013-08-03 06:15:00,67.1,62.1,29.87,SW,225,0.0,1.0,84,0.00,,BKN065,0.00,VWS V14.00,2013-08-03 10:15:00,
2013-08-03 06:20:00,67.4,62.1,29.88,SSW,203,1.0,3.0,83,0.00,,BKN065,0.00,VWS V14.00,2013-08-03 10:20:00,
2013-08-03 06:25:00,67.6,61.9,29.88,WSW,238,0.0,3.0,82,0.00,,BKN065,0.00,VWS V14.00,2013-08-03 10:25:00,
2013-08-03 06:30:00,67.6,62.3,29.88,SW,233,0.0,0.0,83,0.00,,BKN065,0.00,VWS V14.00,2013-08-03 10:30:00,
2013-08-03 06:35:00,67.8,62.1,29.88,West,277,0.0,3.0,82,0.00,,BKN065,0.00,VWS V14.00,2013-08-03 10:35:00,
2013-08-03 06:40:00,67.9,61.9,29.88,WSW,250,0.0,3.0,81,0.00,,BKN065,0.00,VWS V14.00,2013-08-03 10:40:00,
2013-08-03 06:45:00,68.0,61.6,29.88,SW,236,1.0,3.0,80,0.00,,BKN065,0.00,VWS V14.00,2013-08-03 10:45:00,
2013-08-03 06:50:00,68.1,62.1,29.88,SSW,205,0.0,3.0,81,0.00,,BKN065,0.00,VWS V14.00,2013-08-03 10:50:00,
2013-08-03 06:56:00,68.1,62.1,29.88,WSW,248,0.0,3.0,81,0.00,,BKN065,0.00,VWS V14.00,2013-08-03 10:56:00,
2013-08-03 07:00:00,68.1,62.4,29.88,WSW,249,0.0,3.0,82,0.00,,CLR,0.00,VWS V14.00,2013-08-03 11:00:00,
2013-08-03 07:01:00,68.1,62.4,29.88,WSW,249,0.0,0.0,82,0.00,,BKN070,0.00,VWS V14.00,2013-08-03 11:01:00,
2013-08-03 07:06:00,68.1,62.8,29.88,WSW,249,0.0,0.0,83,0.00,,BKN070,0.00,VWS V14.00,2013-08-03 11:06:00,
2013-08-03 07:11:00,68.1,63.4,29.88,South,188,1.0,1.0,85,0.00,,BKN070,0.00,VWS V14.00,2013-08-03 11:11:00,
2013-08-03 07:16:00,68.2,63.5,29.88,South,188,0.0,1.0,85,0.00,,BKN070,0.00,VWS V14.00,2013-08-03 11:16:00,
2013-08-03 07:21:00,68.4,64.1,29.88,South,188,0.0,1.0,86,0.00,,BKN070,0.00,VWS V14.00,2013-08-03 11:21:00,
2013-08-03 07:26:00,68.4,63.7,29.88,South,188,0.0,1.0,85,0.00,,BKN070,0.00,VWS V14.00,2013-08-03 11:26:00,
2013-08-03 07:30:00,68.5,64.2,29.88,South,188,0.0,1.0,86,0.00,,CLR,0.00,VWS V14.00,2013-08-03 11:30:00,
2013-08-03 07:31:00,68.5,63.8,29.88,South,188,0.0,0.0,85,0.00,,BKN070,0.00,VWS V14.00,2013-08-03 11:31:00,
2013-08-03 07:36:00,68.7,64.0,29.88,South,188,0.0,0.0,85,0.00,,BKN070,0.00,VWS V14.00,2013-08-03 11:36:00,
2013-08-03 07:42:00,68.9,64.2,29.88,South,188,0.0,0.0,85,0.00,,BKN070,0.00,VWS V14.00,2013-08-03 11:42:00,
2013-08-03 07:47:00,69.1,64.1,29.89,South,188,0.0,1.0,84,0.00,,BKN070,0.00,VWS V14.00,2013-08-03 11:47:00,
2013-08-03 07:52:00,69.3,64.6,29.89,South,190,0.0,1.0,85,0.00,,BKN070,0.00,VWS V14.00,2013-08-03 11:52:00,
2013-08-03 07:57:00,69.5,64.1,29.89,South,188,0.0,1.0,83,0.00,,BKN070,0.00,VWS V14.00,2013-08-03 11:57:00,
2013-08-03 08:00:00,69.6,63.9,29.89,West,281,0.0,1.0,82,0.00,,CLR,0.00,VWS V14.00,2013-08-03 12:00:00,
2013-08-03 08:02:00,69.8,64.4,29.89,West,281,1.0,1.0,83,0.00,,OVC080,0.00,VWS V14.00,2013-08-03 12:02:00,
2013-08-03 08:07:00,69.9,64.5,29.89,West,281,0.0,1.0,83,0.00,,OVC080,0.00,VWS V14.00,2013-08-03 12:07:00,
2013-08-03 08:12:00,70.0,64.6,29.89,West,281,0.0,1.0,83,0.00,,OVC080,0.00,VWS V14.00,2013-08-03 12:12:00,
2013-08-03 08:17:00,70.1,64.7,29.89,WSW,245,0.0,1.0,83,0.00,,OVC080,0.00,VWS V14.00,2013-08-03 12:17:00,
2013-08-03 08:22:00,70.2,64.4,29.90,WSW,245,0.0,1.0,82,0.00,,OVC080,0.00,VWS V14.00,2013-08-03 12:22:00,
2013-08-03 08:27:00,70.4,65.0,29.90,WSW,245,0.0,1.0,83,0.00,,OVC080,0.00,VWS V14.00,2013-08-03 12:27:00,
2013-08-03 08:30:00,70.5,64.8,29.90,WSW,245,0.0,1.0,82,0.00,,CLR,0.00,VWS V14.00,2013-08-03 12:30:00,
2013-08-03 08:33:00,70.7,65.3,29.90,WSW,245,0.0,0.0,83,0.00,,OVC080,0.00,VWS V14.00,2013-08-03 12:33:00,
2013-08-03 08:38:00,70.8,65.0,29.89,WSW,245,0.0,0.0,82,0.00,,OVC080,0.00,VWS V14.00,2013-08-03 12:38:00,
2013-08-03 08:43:00,71.1,65.7,29.90,WSW,245,0.0,0.0,83,0.00,,OVC080,0.00,VWS V14.00,2013-08-03 12:43:00,
2013-08-03 08:48:00,71.3,64.8,29.90,WSW,245,0.0,0.0,80,0.00,,OVC080,0.00,VWS V14.00,2013-08-03 12:48:00,
2013-08-03 08:53:00,71.7,65.6,29.90,NNW,342,0.0,0.0,81,0.00,,OVC080,0.00,VWS V14.00,2013-08-03 12:53:00,
2013-08-03 08:58:00,71.9,64.7,29.90,NNE,19,0.0,0.0,78,0.00,,OVC080,0.00,VWS V14.00,2013-08-03 12:58:00,
2013-08-03 09:00:00,71.9,64.7,29.90,NNE,19,0.0,0.0,78,0.00,,CLR,0.00,VWS V14.00,2013-08-03 13:00:00,
2013-08-03 09:03:00,72.0,64.8,29.90,North,359,0.0,0.0,78,0.00,,BKN100,0.00,VWS V14.00,2013-08-03 13:03:00,
2013-08-03 09:08:00,71.9,64.3,29.90,SW,229,0.0,2.0,77,0.00,,BKN100,0.00,VWS V14.00,2013-08-03 13:08:00,
2013-08-03 09:13:00,71.7,64.1,29.90,WNW,300,0.0,2.0,77,0.00,,BKN100,0.00,VWS V14.00,2013-08-03 13:13:00,
2013-08-03 09:19:00,71.5,64.3,29.90,SSE,155,0.0,2.0,78,0.00,,BKN100,0.00,VWS V14.00,2013-08-03 13:19:00,
2013-08-03 09:24:00,71.3,64.5,29.90,SW,225,0.0,2.0,79,0.00,,BKN100,0.00,VWS V14.00,2013-08-03 13:24:00,
2013-08-03 09:29:00,71.1,64.3,29.90,ESE,115,1.0,2.0,79,0.00,,BKN100,0.00,VWS V14.00,2013-08-03 13:29:00,
2013-08-03 09:30:00,71.1,64.3,29.90,ESE,115,1.0,2.0,79,0.00,,CLR,0.00,VWS V14.00,2013-08-03 13:30:00,
2013-08-03 09:34:00,70.9,64.4,29.90,WSW,239,2.0,2.0,80,0.00,,BKN100,0.00,VWS V14.00,2013-08-03 13:34:00,
2013-08-03 09:39:00,70.7,64.2,29.90,NNW,331,1.0,2.0,80,0.00,,BKN100,0.00,VWS V14.00,2013-08-03 13:39:00,
2013-08-03 09:44:00,70.7,64.6,29.90,WNW,302,0.0,4.0,81,0.00,,BKN100,0.00,VWS V14.00,2013-08-03 13:44:00,
2013-08-03 09:50:00,70.5,64.4,29.89,SW,229,1.0,4.0,81,0.00,,BKN100,0.00,VWS V14.00,2013-08-03 13:50:00,
2013-08-03 09:55:00,70.3,64.2,29.90,WNW,302,0.0,4.0,81,0.00,,BKN100,0.00,VWS V14.00,2013-08-03 13:55:00,
2013-08-03 10:00:00,70.2,64.4,29.90,WNW,302,0.0,0.0,82,0.00,,BKN100,0.00,VWS V14.00,2013-08-03 14:00:00,
2013-08-03 10:05:00,70.3,64.9,29.90,NNW,347,0.0,0.0,83,0.00,,OVC110,0.00,VWS V14.00,2013-08-03 14:05:00,
2013-08-03 10:10:00,70.2,64.4,29.90,NNW,334,0.0,0.0,82,0.00,,OVC110,0.00,VWS V14.00,2013-08-03 14:10:00,
2013-08-03 10:15:00,70.2,64.8,29.90,NNW,334,0.0,0.0,83,0.00,,OVC110,0.00,VWS V14.00,2013-08-03 14:15:00,
2013-08-03 10:20:00,70.0,64.6,29.90,SSW,204,0.0,0.0,83,0.00,,OVC110,0.00,VWS V14.00,2013-08-03 14:20:00,
2013-08-03 10:25:00,69.9,65.2,29.90,SW,226,0.0,0.0,85,0.00,,OVC110,0.00,VWS V14.00,2013-08-03 14:25:00,
2013-08-03 10:30:00,69.7,65.3,29.90,SW,226,0.0,0.0,86,0.01,,OVC110,0.01,VWS V14.00,2013-08-03 14:30:00,
2013-08-03 10:35:00,69.6,65.6,29.90,SW,226,0.0,0.0,87,0.01,,OVC110,0.01,VWS V14.00,2013-08-03 14:35:00,
2013-08-03 10:41:00,69.4,65.4,29.90,WSW,238,0.0,1.0,87,0.01,,OVC110,0.01,VWS V14.00,2013-08-03 14:41:00,
2013-08-03 10:46:00,69.4,66.0,29.90,WSW,239,0.0,1.0,89,0.01,,OVC110,0.01,VWS V14.00,2013-08-03 14:46:00,
2013-08-03 10:51:00,69.4,65.7,29.90,WSW,239,0.0,1.0,88,0.01,,OVC110,0.01,VWS V14.00,2013-08-03 14:51:00,
2013-08-03 10:56:00,69.6,66.2,29.90,WSW,238,0.0,1.0,89,0.01,,OVC110,0.01,VWS V14.00,2013-08-03 14:56:00,
2013-08-03 11:00:00,69.6,65.9,29.90,WSW,250,0.0,1.0,88,0.01,,CLR,0.01,VWS V14.00,2013-08-03 15:00:00,
2013-08-03 11:01:00,69.6,66.2,29.90,WSW,250,0.0,1.0,89,0.01,,-RA,0.01,VWS V14.00,2013-08-03 15:01:00,
2013-08-03 11:07:00,69.6,66.2,29.90,WNW,283,2.0,2.0,89,0.01,,-RA,0.01,VWS V14.00,2013-08-03 15:07:00,
2013-08-03 11:12:00,69.7,66.3,29.90,East,97,2.0,2.0,89,0.01,,-RA,0.01,VWS V14.00,2013-08-03 15:12:00,
2013-08-03 11:17:00,69.7,66.3,29.90,SSW,193,1.0,2.0,89,0.01,,-RA,0.01,VWS V14.00,2013-08-03 15:17:00,
2013-08-03 11:22:00,69.8,66.4,29.91,West,271,1.0,2.0,89,0.01,,-RA,0.01,VWS V14.00,2013-08-03 15:22:00,
2013-08-03 11:27:00,69.8,66.4,29.91,West,276,1.0,2.0,89,0.01,,-RA,0.01,VWS V14.00,2013-08-03 15:27:00,
2013-08-03 11:30:00,69.9,66.5,29.91,SSE,165,0.0,2.0,89,0.01,,CLR,0.01,VWS V14.00,2013-08-03 15:30:00,
2013-08-03 11:32:00,70.0,66.9,29.91,SSE,165,0.0,0.0,90,0.01,,-RA,0.02,VWS V14.00,2013-08-03 15:32:00,
2013-08-03 11:34:00,70.0,66.9,29.91,SSE,165,0.0,0.0,90,0.01,,-RA,0.02,VWS V14.00,2013-08-03 15:34:00,
2013-08-03 11:39:00,70.2,67.1,29.91,West,270,0.0,1.0,90,0.01,,-RA,0.02,VWS V14.00,2013-08-03 15:39:00,
2013-08-03 11:44:00,70.4,67.0,29.91,WSW,246,0.0,1.0,89,0.01,,-RA,0.02,VWS V14.00,2013-08-03 15:44:00,
2013-08-03 11:49:00,70.6,67.2,29.91,SSW,198,0.0,1.0,89,0.01,,-RA,0.02,VWS V14.00,2013-08-03 15:49:00,
2013-08-03 11:54:00,70.7,67.3,29.91,SSE,160,0.0,1.0,89,0.01,,-RA,0.02,VWS V14.00,2013-08-03 15:54:00,
2013-08-03 11:59:00,70.8,67.4,29.91,SSW,198,0.0,0.0,89,0.01,,-RA,0.02,VWS V14.00,2013-08-03 15:59:00,
2013-08-03 12:00:00,70.8,67.4,29.91,SSW,198,0.0,1.0,89,0.01,,CLR,0.02,VWS V14.00,2013-08-03 16:00:00,
2013-08-03 12:04:00,70.9,67.5,29.90,SE,132,0.0,0.0,89,0.01,,-RA,0.02,VWS V14.00,2013-08-03 16:04:00,
2013-08-03 12:09:00,71.0,67.6,29.91,SSW,210,0.0,1.0,89,0.02,,-RA,0.03,VWS V14.00,2013-08-03 16:09:00,
2013-08-03 12:14:00,71.0,67.6,29.90,SSE,160,1.0,2.0,89,0.02,,-RA,0.03,VWS V14.00,2013-08-03 16:14:00,
2013-08-03 12:20:00,71.1,67.4,29.91,WSW,253,2.0,3.0,88,0.02,,-RA,0.03,VWS V14.00,2013-08-03 16:20:00,
2013-08-03 12:25:00,70.6,66.9,29.91,West,273,0.0,5.0,88,0.02,,-RA,0.03,VWS V14.00,2013-08-03 16:25:00,
2013-08-03 12:30:00,70.5,67.4,29.90,SSE,152,0.0,1.0,90,0.03,,-RA,0.04,VWS V14.00,2013-08-03 16:30:00,
2013-08-03 12:35:00,70.6,67.5,29.91,SE,136,0.0,1.0,90,0.03,,-RA,0.04,VWS V14.00,2013-08-03 16:35:00,
2013-08-03 12:40:00,70.8,68.1,29.91,SSW,208,2.0,2.0,91,0.03,,-RA,0.04,VWS V14.00,2013-08-03 16:40:00,
2013-08-03 12:45:00,70.7,67.3,29.90,West,274,0.0,2.0,89,0.03,,-RA,0.04,VWS V14.00,2013-08-03 16:45:00,
2013-08-03 12:50:00,70.7,67.6,29.90,SSE,152,0.0,3.0,90,0.04,,-RA,0.05,VWS V14.00,2013-08-03 16:50:00,
2013-08-03 12:55:00,70.9,67.8,29.90,WSW,249,1.0,3.0,90,0.04,,-RA,0.05,VWS V14.00,2013-08-03 16:55:00,
2013-08-03 13:00:00,70.9,67.5,29.90,SSW,207,1.0,3.0,89,0.04,,CLR,0.05,VWS V14.00,2013-08-03 17:00:00,
2013-08-03 13:01:00,71.0,67.9,29.90,SW,226,2.0,2.0,90,0.03,,-RA,0.05,VWS V14.00,2013-08-03 17:01:00,
2013-08-03 13:06:00,70.8,67.1,29.89,SW,222,0.0,4.0,88,0.03,,-RA,0.05,VWS V14.00,2013-08-03 17:06:00,
2013-08-03 13:11:00,70.8,67.4,29.89,SSE,165,2.0,4.0,89,0.03,,-RA,0.05,VWS V14.00,2013-08-03 17:11:00,
2013-08-03 13:16:00,70.7,67.0,29.89,SSW,204,2.0,4.0,88,0.03,,-RA,0.05,VWS V14.00,2013-08-03 17:16:00,
2013-08-03 13:21:00,70.8,67.4,29.89,SE,145,0.0,4.0,89,0.03,,-RA,0.05,VWS V14.00,2013-08-03 17:21:00,
2013-08-03 13:26:00,71.0,67.6,29.89,SW,228,2.0,4.0,89,0.03,,-RA,0.05,VWS V14.00,2013-08-03 17:26:00,
2013-08-03 13:30:00,70.9,67.5,29.89,SW,233,1.0,4.0,89,0.03,,CLR,0.05,VWS V14.00,2013-08-03 17:30:00,
2013-08-03 13:31:00,70.9,67.5,29.89,West,267,1.0,1.0,89,0.01,,-RA,0.05,VWS V14.00,2013-08-03 17:31:00,
2013-08-03 13:37:00,71.1,68.0,29.89,SSW,200,0.0,2.0,90,0.01,,-RA,0.05,VWS V14.00,2013-08-03 17:37:00,
2013-08-03 13:41:00,71.1,67.7,29.89,WNW,293,1.0,3.0,89,0.01,,-RA,0.05,VWS V14.00,2013-08-03 17:41:00,
2013-08-03 13:47:00,71.2,67.8,29.90,SSW,212,1.0,4.0,89,0.01,,-RA,0.05,VWS V14.00,2013-08-03 17:47:00,
2013-08-03 13:52:00,71.3,67.9,29.90,SW,220,1.0,6.0,89,0.01,,-RA,0.05,VWS V14.00,2013-08-03 17:52:00,
2013-08-03 13:57:00,71.4,68.0,29.89,WSW,257,1.0,6.0,89,0.01,,-RA,0.05,VWS V14.00,2013-08-03 17:57:00,
2013-08-03 14:00:00,71.5,68.4,29.90,South,176,0.0,6.0,90,0.01,,CLR,0.05,VWS V14.00,2013-08-03 18:00:00,
2013-08-03 14:02:00,71.5,67.8,29.90,SSE,165,1.0,6.0,88,0.00,,OVC090,0.05,VWS V14.00,2013-08-03 18:02:00,
2013-08-03 14:07:00,71.5,67.8,29.90,South,191,0.0,6.0,88,0.00,,OVC090,0.05,VWS V14.00,2013-08-03 18:07:00,
2013-08-03 14:12:00,71.4,67.7,29.90,SE,135,1.0,6.0,88,0.00,,OVC090,0.05,VWS V14.00,2013-08-03 18:12:00,
2013-08-03 14:17:00,71.5,68.1,29.90,SE,135,0.0,6.0,89,0.00,,OVC090,0.05,VWS V14.00,2013-08-03 18:17:00,
2013-08-03 14:22:00,71.6,68.2,29.89,SE,146,3.0,6.0,89,0.00,,OVC090,0.05,VWS V14.00,2013-08-03 18:22:00,
2013-08-03 14:27:00,71.7,68.0,29.89,SE,125,3.0,6.0,88,0.00,,OVC090,0.05,VWS V14.00,2013-08-03 18:27:00,
2013-08-03 14:30:00,71.8,68.4,29.89,SW,236,3.0,6.0,89,0.00,,CLR,0.05,VWS V14.00,2013-08-03 18:30:00,
2013-08-03 14:33:00,72.1,69.0,29.89,SW,215,1.0,3.0,90,0.00,,OVC090,0.05,VWS V14.00,2013-08-03 18:33:00,
2013-08-03 14:38:00,72.4,68.7,29.89,SSE,152,0.0,4.0,88,0.00,,OVC090,0.05,VWS V14.00,2013-08-03 18:38:00,
2013-08-03 14:43:00,72.8,69.0,29.89,SSE,162,0.0,4.0,88,0.00,,OVC090,0.05,VWS V14.00,2013-08-03 18:43:00,
2013-08-03 14:48:00,73.1,69.3,29.89,ESE,114,2.0,4.0,88,0.00,,OVC090,0.05,VWS V14.00,2013-08-03 18:48:00,
2013-08-03 14:53:00,72.9,68.5,29.88,NW,304,1.0,5.0,86,0.00,,OVC090,0.05,VWS V14.00,2013-08-03 18:53:00,
2013-08-03 14:58:00,72.9,68.8,29.88,SSW,208,0.0,5.0,87,0.00,,OVC090,0.05,VWS V14.00,2013-08-03 18:58:00,
2013-08-03 15:00:00,73.0,68.9,29.88,WSW,248,1.0,5.0,87,0.00,,CLR,0.05,VWS V14.00,2013-08-03 19:00:00,
2013-08-03 15:03:00,73.1,69.0,29.88,WSW,252,1.0,2.0,87,0.00,,OVC110,0.05,VWS V14.00,2013-08-03 19:03:00,
2013-08-03 15:09:00,72.9,68.5,29.88,SSW,211,1.0,3.0,86,0.00,,OVC110,0.05,VWS V14.00,2013-08-03 19:09:00,
2013-08-03 15:14:00,73.1,69.0,29.88,SSW,200,2.0,4.0,87,0.00,,OVC110,0.05,VWS V14.00,2013-08-03 19:14:00,
2013-08-03 15:19:00,72.9,68.5,29.88,SE,127,2.0,8.0,86,0.00,,OVC110,0.05,VWS V14.00,2013-08-03 19:19:00,
2013-08-03 15:24:00,73.0,68.6,29.88,WNW,284,2.0,9.0,86,0.00,,OVC110,0.05,VWS V14.00,2013-08-03 19:24:00,
2013-08-03 15:29:00,73.3,68.5,29.88,SSE,166,1.0,9.0,85,0.00,,OVC110,0.05,VWS V14.00,2013-08-03 19:29:00,
2013-08-03 15:30:00,73.3,68.5,29.88,South,186,1.0,9.0,85,0.00,,CLR,0.05,VWS V14.00,2013-08-03 19:30:00,
2013-08-03 15:34:00,74.1,69.7,29.88,SSE,162,2.0,4.0,86,0.00,,OVC110,0.05,VWS V14.00,2013-08-03 19:34:00,
2013-08-03 15:39:00,75.0,69.5,29.87,West,259,1.0,4.0,83,0.00,,OVC110,0.05,VWS V14.00,2013-08-03 19:39:00,
2013-08-03 15:44:00,74.9,69.0,29.87,West,280,1.0,4.0,82,0.00,,OVC110,0.05,VWS V14.00,2013-08-03 19:44:00,
2013-08-03 15:49:00,74.9,69.0,29.87,SSE,163,1.0,4.0,82,0.00,,OVC110,0.05,VWS V14.00,2013-08-03 19:49:00,
2013-08-03 15:55:00,74.9,68.7,29.86,West,276,1.0,7.0,81,0.00,,OVC110,0.05,VWS V14.00,2013-08-03 19:55:00,
2013-08-03 16:00:00,75.2,69.0,29.86,WSW,256,1.0,3.0,81,0.00,,BKN100,0.05,VWS V14.00,2013-08-03 20:00:00,
2013-08-03 16:05:00,75.4,69.2,29.86,SW,236,0.0,6.0,81,0.00,,BKN100,0.05,VWS V14.00,2013-08-03 20:05:00,
2013-08-03 16:10:00,75.6,69.4,29.86,West,277,1.0,6.0,81,0.00,,BKN100,0.05,VWS V14.00,2013-08-03 20:10:00,
2013-08-03 16:15:00,75.7,68.7,29.85,WSW,243,1.0,6.0,79,0.00,,BKN100,0.05,VWS V14.00,2013-08-03 20:15:00,
2013-08-03 16:20:00,75.4,68.4,29.85,SSW,201,2.0,6.0,79,0.00,,BKN100,0.05,VWS V14.00,2013-08-03 20:20:00,
2013-08-03 16:25:00,75.0,68.4,29.85,WSW,238,4.0,7.0,80,0.00,,BKN100,0.05,VWS V14.00,2013-08-03 20:25:00,
2013-08-03 16:30:00,75.0,68.8,29.85,WSW,255,5.0,8.0,81,0.00,,BKN100,0.05,VWS V14.00,2013-08-03 20:30:00,
2013-08-03 16:35:00,74.7,67.8,29.85,SSW,207,2.0,8.0,79,0.00,,BKN100,0.05,VWS V14.00,2013-08-03 20:35:00,
2013-08-03 16:40:00,74.8,68.2,29.85,West,262,1.0,8.0,80,0.00,,BKN110,0.05,VWS V14.00,2013-08-03 20:40:00,
2013-08-03 16:46:00,74.5,67.6,29.85,ESE,117,2.0,8.0,79,0.00,,BKN110,0.05,VWS V14.00,2013-08-03 20:46:00,
2013-08-03 16:51:00,74.5,68.3,29.84,West,264,1.0,8.0,81,0.00,,OVC110,0.05,VWS V14.00,2013-08-03 20:51:00,
2013-08-03 16:56:00,74.5,67.9,29.84,West,269,5.0,8.0,80,0.00,,OVC110,0.05,VWS V14.00,2013-08-03 20:56:00,
2013-08-03 17:00:00,74.5,67.9,29.85,WNW,284,3.0,8.0,80,0.00,,CLR,0.05,VWS V14.00,2013-08-03 21:00:00,
2013-08-03 17:01:00,74.5,67.6,29.85,South,172,3.0,4.0,79,0.00,,OVC090,0.05,VWS V14.00,2013-08-03 21:01:00,
2013-08-03 17:06:00,74.5,67.9,29.85,SSW,205,2.0,7.0,80,0.00,,OVC090,0.05,VWS V14.00,2013-08-03 21:06:00,
2013-08-03 17:12:00,74.7,68.1,29.85,SW,235,1.0,7.0,80,0.00,,OVC090,0.05,VWS V14.00,2013-08-03 21:12:00,
2013-08-03 17:17:00,74.8,67.5,29.85,WNW,287,2.0,7.0,78,0.00,,OVC090,0.05,VWS V14.00,2013-08-03 21:17:00,
2013-08-03 17:22:00,74.8,67.5,29.85,WNW,297,4.0,8.0,78,0.00,,OVC090,0.05,VWS V14.00,2013-08-03 21:22:00,
2013-08-03 17:27:00,74.9,67.6,29.85,WSW,252,3.0,8.0,78,0.00,,OVC090,0.05,VWS V14.00,2013-08-03 21:27:00,
2013-08-03 17:30:00,74.9,67.6,29.85,WSW,243,3.0,8.0,78,0.00,,CLR,0.05,VWS V14.00,2013-08-03 21:30:00,
2013-08-03 17:32:00,74.8,67.1,29.85,ENE,71,1.0,8.0,77,0.00,,OVC090,0.05,VWS V14.00,2013-08-03 21:32:00,
2013-08-03 17:37:00,74.7,67.0,29.85,South,186,1.0,8.0,77,0.00,,OVC090,0.05,VWS V14.00,2013-08-03 21:37:00,
2013-08-03 17:42:00,74.4,66.7,29.85,WSW,249,5.0,8.0,77,0.00,,OVC090,0.05,VWS V14.00,2013-08-03 21:42:00,
2013-08-03 17:47:00,74.1,66.8,29.85,WNW,302,3.0,8.0,78,0.00,,OVC090,0.05,VWS V14.00,2013-08-03 21:47:00,
2013-08-03 17:53:00,73.9,66.2,29.85,West,262,1.0,8.0,77,0.00,,OVC090,0.05,VWS V14.00,2013-08-03 21:53:00,
2013-08-03 17:58:00,74.0,66.3,29.85,SW,236,1.0,8.0,77,0.00,,OVC090,0.05,VWS V14.00,2013-08-03 21:58:00,
2013-08-03 18:00:00,74.0,66.7,29.85,WNW,297,0.0,8.0,78,0.00,,CLR,0.05,VWS V14.00,2013-08-03 22:00:00,
2013-08-03 18:03:00,74.2,66.2,29.85,NW,326,1.0,6.0,76,0.00,,BKN100,0.05,VWS V14.00,2013-08-03 22:03:00,
2013-08-03 18:08:00,74.4,66.3,29.85,West,262,1.0,6.0,76,0.00,,BKN100,0.05,VWS V14.00,2013-08-03 22:08:00,
2013-08-03 18:13:00,74.7,67.0,29.85,NW,321,0.0,6.0,77,0.00,,BKN100,0.05,VWS V14.00,2013-08-03 22:13:00,
2013-08-03 18:18:00,74.9,67.2,29.85,SW,226,2.0,6.0,77,0.00,,BKN100,0.05,VWS V14.00,2013-08-03 22:18:00,
2013-08-03 18:23:00,74.9,67.2,29.85,West,269,1.0,6.0,77,0.00,,BKN100,0.05,VWS V14.00,2013-08-03 22:23:00,
2013-08-03 18:28:00,74.7,66.6,29.85,SSW,197,0.0,6.0,76,0.00,,BKN100,0.05,VWS V14.00,2013-08-03 22:28:00,
2013-08-03 18:30:00,74.7,67.0,29.85,West,271,1.0,6.0,77,0.00,,CLR,0.05,VWS V14.00,2013-08-03 22:30:00,
2013-08-03 18:34:00,74.5,66.8,29.85,West,276,3.0,4.0,77,0.00,,BKN100,0.05,VWS V14.00,2013-08-03 22:34:00,
2013-08-03 18:39:00,74.4,66.7,29.85,SW,235,1.0,5.0,77,0.00,,BKN100,0.05,VWS V14.00,2013-08-03 22:39:00,
2013-08-03 18:44:00,74.4,66.7,29.85,WSW,248,3.0,8.0,77,0.00,,BKN100,0.05,VWS V14.00,2013-08-03 22:44:00,
2013-08-03 18:49:00,74.3,66.2,29.85,SW,224,2.0,8.0,76,0.00,,BKN100,0.05,VWS V14.00,2013-08-03 22:49:00,
2013-08-03 18:54:00,74.2,66.5,29.85,WSW,248,0.0,8.0,77,0.00,,BKN100,0.05,VWS V14.00,2013-08-03 22:54:00,
2013-08-03 18:59:00,74.2,66.9,29.85,WSW,249,1.0,8.0,78,0.00,,BKN100,0.05,VWS V14.00,2013-08-03 22:59:00,
2013-08-03 19:00:00,74.2,66.9,29.85,WSW,249,1.0,8.0,78,0.00,,CLR,0.05,VWS V14.00,2013-08-03 23:00:00,
2013-08-03 19:04:00,73.9,66.6,29.85,SE,135,0.0,3.0,78,0.00,,BKN090,0.05,VWS V14.00,2013-08-03 23:04:00,
2013-08-03 19:09:00,73.7,66.4,29.85,SSW,203,1.0,3.0,78,0.00,,BKN090,0.05,VWS V14.00,2013-08-03 23:09:00,
2013-08-03 19:14:00,73.3,66.4,29.85,SW,228,0.0,3.0,79,0.00,,BKN090,0.05,VWS V14.00,2013-08-03 23:14:00,
2013-08-03 19:19:00,72.9,66.4,29.86,WSW,248,1.0,3.0,80,0.00,,BKN090,0.05,VWS V14.00,2013-08-03 23:19:00,
2013-08-03 19:24:00,72.5,66.0,29.86,SW,233,1.0,3.0,80,0.00,,BKN090,0.05,VWS V14.00,2013-08-03 23:24:00,
2013-08-03 19:30:00,72.2,66.1,29.86,SW,232,0.0,0.0,81,0.00,,BKN090,0.05,VWS V14.00,2013-08-03 23:30:00,
2013-08-03 19:35:00,71.9,66.1,29.85,SW,232,0.0,1.0,82,0.00,,BKN090,0.05,VWS V14.00,2013-08-03 23:35:00,
2013-08-03 19:40:00,71.6,66.2,29.86,SW,232,0.0,1.0,83,0.00,,BKN090,0.05,VWS V14.00,2013-08-03 23:40:00,
2013-08-03 19:45:00,71.4,66.0,29.85,SW,232,0.0,1.0,83,0.00,,BKN090,0.05,VWS V14.00,2013-08-03 23:45:00,
2013-08-03 19:50:00,71.2,66.1,29.85,SW,232,0.0,1.0,84,0.00,,BKN090,0.05,VWS V14.00,2013-08-03 23:50:00,
2013-08-03 19:55:00,71.1,66.4,29.85,SW,232,0.0,1.0,85,0.00,,BKN090,0.05,VWS V14.00,2013-08-03 23:55:00,
2013-08-03 20:00:00,70.9,66.2,29.85,SW,232,0.0,0.0,85,0.00,,FEW120,0.05,VWS V14.00,2013-08-04 00:00:00,
2013-08-03 20:06:00,70.7,66.3,29.85,SW,232,0.0,0.0,86,0.00,,FEW120,0.05,VWS V14.00,2013-08-04 00:06:00,
2013-08-03 20:11:00,70.4,66.3,29.86,SW,231,0.0,1.0,87,0.00,,FEW120,0.05,VWS V14.00,2013-08-04 00:11:00,
2013-08-03 20:16:00,70.3,66.6,29.86,SW,232,0.0,1.0,88,0.00,,FEW120,0.05,VWS V14.00,2013-08-04 00:16:00,
2013-08-03 20:21:00,70.0,66.3,29.86,SW,232,0.0,1.0,88,0.00,,FEW120,0.05,VWS V14.00,2013-08-04 00:21:00,
2013-08-03 20:26:00,69.8,66.4,29.86,SW,232,0.0,1.0,89,0.00,,FEW120,0.05,VWS V14.00,2013-08-04 00:26:00,
2013-08-03 20:30:00,69.7,66.3,29.86,SW,232,0.0,1.0,89,0.00,,CLR,0.05,VWS V14.00,2013-08-04 00:30:00,
2013-08-03 20:31:00,69.6,66.2,29.87,SW,232,0.0,0.0,89,0.00,,FEW120,0.05,VWS V14.00,2013-08-04 00:31:00,
2013-08-03 20:36:00,69.3,66.2,29.87,SW,232,0.0,0.0,90,0.00,,FEW120,0.05,VWS V14.00,2013-08-04 00:36:00,
2013-08-03 20:41:00,69.0,65.9,29.87,SW,232,0.0,0.0,90,0.00,,FEW120,0.05,VWS V14.00,2013-08-04 00:41:00,
2013-08-03 20:46:00,68.7,66.0,29.87,SW,232,0.0,0.0,91,0.00,,FEW120,0.05,VWS V14.00,2013-08-04 00:46:00,
2013-08-03 20:52:00,68.4,65.7,29.87,West,259,0.0,1.0,91,0.00,,FEW120,0.05,VWS V14.00,2013-08-04 00:52:00,
2013-08-03 20:57:00,68.1,65.7,29.87,WSW,258,0.0,1.0,92,0.00,,FEW120,0.05,VWS V14.00,2013-08-04 00:57:00,
2013-08-03 21:00:00,67.9,65.5,29.87,West,259,0.0,1.0,92,0.00,,CLR,0.05,VWS V14.00,2013-08-04 01:00:00,
2013-08-03 21:02:00,67.8,65.4,29.87,West,259,0.0,0.0,92,0.00,,OVC100,0.05,VWS V14.00,2013-08-04 01:02:00,
2013-08-03 21:07:00,67.6,65.5,29.87,WSW,258,0.0,0.0,93,0.00,,OVC100,0.05,VWS V14.00,2013-08-04 01:07:00,
2013-08-03 21:12:00,67.3,65.2,29.87,WSW,258,0.0,0.0,93,0.00,,OVC100,0.05,VWS V14.00,2013-08-04 01:12:00,
2013-08-03 21:17:00,67.1,65.0,29.87,West,259,0.0,0.0,93,0.00,,OVC100,0.05,VWS V14.00,2013-08-04 01:17:00,
2013-08-03 21:22:00,66.8,64.7,29.87,WSW,258,0.0,0.0,93,0.00,,OVC100,0.05,VWS V14.00,2013-08-04 01:22:00,
2013-08-03 21:27:00,66.5,64.4,29.87,West,259,0.0,1.0,93,0.00,,OVC100,0.05,VWS V14.00,2013-08-04 01:27:00,
2013-08-03 21:30:00,66.5,64.4,29.87,West,259,0.0,1.0,93,0.00,,CLR,0.05,VWS V14.00,2013-08-04 01:30:00,
2013-08-03 21:33:00,66.3,64.2,29.87,West,259,0.0,0.0,93,0.00,,OVC100,0.05,VWS V14.00,2013-08-04 01:33:00,
2013-08-03 21:38:00,66.2,64.4,29.87,West,259,0.0,0.0,94,0.00,,OVC100,0.05,VWS V14.00,2013-08-04 01:38:00,
2013-08-03 21:43:00,66.0,64.2,29.88,WSW,258,0.0,0.0,94,0.00,,OVC100,0.05,VWS V14.00,2013-08-04 01:43:00,
2013-08-03 21:48:00,65.9,64.1,29.88,WSW,258,0.0,0.0,94,0.00,,OVC100,0.05,VWS V14.00,2013-08-04 01:48:00,
2013-08-03 21:53:00,65.9,64.1,29.87,West,259,0.0,0.0,94,0.00,,OVC100,0.05,VWS V14.00,2013-08-04 01:53:00,
2013-08-03 21:58:00,65.9,64.1,29.88,West,259,0.0,0.0,94,0.00,,OVC100,0.05,VWS V14.00,2013-08-04 01:58:00,
2013-08-03 22:00:00,65.8,64.0,29.88,West,259,0.0,0.0,94,0.00,,CLR,0.05,VWS V14.00,2013-08-04 02:00:00,
2013-08-03 22:03:00,65.7,63.9,29.88,West,259,0.0,1.0,94,0.00,,SCT090,0.05,VWS V14.00,2013-08-04 02:03:00,
2013-08-03 22:08:00,65.6,63.8,29.88,West,259,0.0,1.0,94,0.00,,SCT090,0.05,VWS V14.00,2013-08-04 02:08:00,
2013-08-03 22:13:00,65.5,63.7,29.88,WSW,258,0.0,1.0,94,0.00,,SCT090,0.05,VWS V14.00,2013-08-04 02:13:00,
2013-08-03 22:19:00,65.6,64.1,29.88,WSW,258,0.0,1.0,95,0.00,,SCT090,0.05,VWS V14.00,2013-08-04 02:19:00,
2013-08-03 22:24:00,65.6,64.1,29.87,WSW,258,0.0,1.0,95,0.00,,SCT090,0.05,VWS V14.00,2013-08-04 02:24:00,
2013-08-03 22:29:00,65.5,64.0,29.87,West,259,0.0,1.0,95,0.00,,SCT090,0.05,VWS V14.00,2013-08-04 02:29:00,
2013-08-03 22:30:00,65.5,64.0,29.87,WSW,258,0.0,1.0,95,0.00,,CLR,0.05,VWS V14.00,2013-08-04 02:30:00,
2013-08-03 22:34:00,65.4,63.9,29.88,WSW,258,0.0,0.0,95,0.00,,SCT090,0.05,VWS V14.00,2013-08-04 02:34:00,
2013-08-03 22:39:00,65.3,63.8,29.87,WSW,258,0.0,0.0,95,0.00,,SCT090,0.05,VWS V14.00,2013-08-04 02:39:00,
2013-08-03 22:44:00,65.0,63.5,29.87,West,259,0.0,0.0,95,0.00,,SCT090,0.05,VWS V14.00,2013-08-04 02:44:00,
2013-08-03 22:49:00,65.0,63.5,29.87,West,259,0.0,0.0,95,0.00,,SCT090,0.05,VWS V14.00,2013-08-04 02:49:00,
2013-08-03 22:54:00,64.9,63.4,29.87,WSW,258,0.0,0.0,95,0.00,,SCT090,0.05,VWS V14.00,2013-08-04 02:54:00,
2013-08-03 22:59:00,64.9,63.4,29.87,West,259,0.0,0.0,95,0.00,,SCT090,0.05,VWS V14.00,2013-08-04 02:59:00,
2013-08-03 23:00:00,64.9,63.4,29.87,WSW,258,0.0,0.0,95,0.00,,CLR,0.05,VWS V14.00,2013-08-04 03:00:00,
2013-08-03 23:04:00,64.8,63.3,29.87,SW,228,0.0,0.0,95,0.00,,CLR,0.05,VWS V14.00,2013-08-04 03:04:00,
2013-08-03 23:09:00,64.5,63.0,29.87,SW,228,0.0,0.0,95,0.00,,CLR,0.05,VWS V14.00,2013-08-04 03:09:00,
2013-08-03 23:15:00,64.5,63.0,29.87,SW,228,0.0,0.0,95,0.00,,CLR,0.05,VWS V14.00,2013-08-04 03:15:00,
2013-08-03 23:20:00,64.4,62.9,29.87,SW,228,0.0,0.0,95,0.00,,CLR,0.05,VWS V14.00,2013-08-04 03:20:00,
2013-08-03 23:25:00,64.3,62.8,29.87,SW,228,0.0,0.0,95,0.00,,CLR,0.05,VWS V14.00,2013-08-04 03:25:00,
2013-08-03 23:30:00,64.1,62.6,29.87,SW,227,0.0,0.0,95,0.00,,CLR,0.05,VWS V14.00,2013-08-04 03:30:00,
2013-08-03 23:35:00,63.9,62.4,29.87,SW,228,0.0,0.0,95,0.00,,CLR,0.05,VWS V14.00,2013-08-04 03:35:00,
2013-08-03 23:40:00,63.7,62.2,29.87,SW,227,0.0,0.0,95,0.00,,CLR,0.05,VWS V14.00,2013-08-04 03:40:00,
2013-08-03 23:46:00,63.7,62.2,29.87,SW,228,0.0,0.0,95,0.00,,CLR,0.05,VWS V14.00,2013-08-04 03:46:00,
2013-08-03 23:51:00,63.6,62.2,29.87,SW,228,0.0,0.0,95,0.00,,CLR,0.05,VWS V14.00,2013-08-04 03:51:00,
2013-08-03 23:56:00,63.7,62.5,29.87,SW,228,0.0,0.0,96,0.00,,CLR,0.05,VWS V14.00,2013-08-04 03:56:00,